sensor_id;sensor_type;location;lat;lon;timestamp;P1;durP1;ratioP1;P2;durP2;ratioP2
3757;SDS011;1894;51.038;13.692;2023-02-01T00:01:07;8.13;;;3.00;;
3757;SDS011;1894;51.038;13.692;2023-02-01T00:03:36;11.07;;;3.40;;
3757;SDS011;1894;51.038;13.692;2023-02-01T00:06:03;8.20;;;2.90;;
3757;SDS011;1894;51.038;13.692;2023-02-01T00:08:30;3.93;;;2.13;;
3757;SDS011;1894;51.038;13.692;2023-02-01T00:11:02;6.07;;;2.87;;
3757;SDS011;1894;51.038;13.692;2023-02-01T00:13:34;8.53;;;2.20;;
3757;SDS011;1894;51.038;13.692;2023-02-01T00:16:09;8.23;;;3.47;;
3757;SDS011;1894;51.038;13.692;2023-02-01T00:18:45;6.63;;;2.40;;
3757;SDS011;1894;51.038;13.692;2023-02-01T00:21:15;5.30;;;2.37;;
3757;SDS011;1894;51.038;13.692;2023-02-01T00:23:45;5.63;;;2.60;;
3757;SDS011;1894;51.038;13.692;2023-02-01T00:28:45;9.23;;;2.93;;
3757;SDS011;1894;51.038;13.692;2023-02-01T00:31:12;8.23;;;2.93;;
3757;SDS011;1894;51.038;13.692;2023-02-01T00:33:41;12.47;;;3.00;;
3757;SDS011;1894;51.038;13.692;2023-02-01T00:36:08;4.70;;;2.87;;
3757;SDS011;1894;51.038;13.692;2023-02-01T00:38:37;10.10;;;3.00;;
3757;SDS011;1894;51.038;13.692;2023-02-01T00:41:15;11.70;;;3.10;;
3757;SDS011;1894;51.038;13.692;2023-02-01T00:43:44;11.50;;;3.20;;
3757;SDS011;1894;51.038;13.692;2023-02-01T00:46:14;10.00;;;3.20;;
3757;SDS011;1894;51.038;13.692;2023-02-01T00:48:44;9.60;;;3.30;;
3757;SDS011;1894;51.038;13.692;2023-02-01T00:51:12;6.80;;;2.93;;
3757;SDS011;1894;51.038;13.692;2023-02-01T00:53:42;3.77;;;2.00;;
3757;SDS011;1894;51.038;13.692;2023-02-01T00:56:10;4.73;;;3.13;;
3757;SDS011;1894;51.038;13.692;2023-02-01T00:58:38;9.73;;;2.50;;
3757;SDS011;1894;51.038;13.692;2023-02-01T01:01:07;5.10;;;2.40;;
3757;SDS011;1894;51.038;13.692;2023-02-01T01:03:42;10.53;;;2.33;;
3757;SDS011;1894;51.038;13.692;2023-02-01T01:06:13;9.17;;;2.60;;
3757;SDS011;1894;51.038;13.692;2023-02-01T01:08:42;3.13;;;2.10;;
3757;SDS011;1894;51.038;13.692;2023-02-01T01:11:11;8.57;;;2.13;;
3757;SDS011;1894;51.038;13.692;2023-02-01T01:13:46;7.80;;;2.90;;
3757;SDS011;1894;51.038;13.692;2023-02-01T01:16:15;6.33;;;1.90;;
3757;SDS011;1894;51.038;13.692;2023-02-01T01:18:43;7.47;;;2.00;;
3757;SDS011;1894;51.038;13.692;2023-02-01T01:21:12;8.47;;;2.80;;
3757;SDS011;1894;51.038;13.692;2023-02-01T01:23:40;8.83;;;2.40;;
3757;SDS011;1894;51.038;13.692;2023-02-01T01:26:09;7.93;;;2.20;;
3757;SDS011;1894;51.038;13.692;2023-02-01T01:28:40;5.13;;;1.90;;
3757;SDS011;1894;51.038;13.692;2023-02-01T01:31:08;10.80;;;2.77;;
3757;SDS011;1894;51.038;13.692;2023-02-01T01:33:37;9.63;;;2.00;;
3757;SDS011;1894;51.038;13.692;2023-02-01T01:36:06;6.63;;;1.60;;
3757;SDS011;1894;51.038;13.692;2023-02-01T01:38:38;10.83;;;2.20;;
3757;SDS011;1894;51.038;13.692;2023-02-01T01:41:07;8.73;;;2.50;;
3757;SDS011;1894;51.038;13.692;2023-02-01T01:46:35;11.50;;;2.00;;
3757;SDS011;1894;51.038;13.692;2023-02-01T01:49:05;14.40;;;2.03;;
3757;SDS011;1894;51.038;13.692;2023-02-01T01:51:51;5.40;;;2.23;;
3757;SDS011;1894;51.038;13.692;2023-02-01T01:54:24;11.33;;;1.73;;
3757;SDS011;1894;51.038;13.692;2023-02-01T01:57:00;7.27;;;2.17;;
3757;SDS011;1894;51.038;13.692;2023-02-01T01:59:36;4.83;;;1.60;;
3757;SDS011;1894;51.038;13.692;2023-02-01T02:02:06;10.23;;;2.07;;
3757;SDS011;1894;51.038;13.692;2023-02-01T02:04:34;7.97;;;1.73;;
3757;SDS011;1894;51.038;13.692;2023-02-01T02:07:04;8.50;;;2.13;;
3757;SDS011;1894;51.038;13.692;2023-02-01T02:09:38;7.77;;;1.67;;
3757;SDS011;1894;51.038;13.692;2023-02-01T02:12:13;13.13;;;2.07;;
3757;SDS011;1894;51.038;13.692;2023-02-01T02:14:40;10.37;;;2.10;;
3757;SDS011;1894;51.038;13.692;2023-02-01T02:38:05;4.63;;;1.63;;
3757;SDS011;1894;51.038;13.692;2023-02-01T02:44:20;3.37;;;1.27;;
3757;SDS011;1894;51.038;13.692;2023-02-01T02:47:30;12.53;;;1.80;;
3757;SDS011;1894;51.038;13.692;2023-02-01T02:53:05;7.80;;;1.90;;
3757;SDS011;1894;51.038;13.692;2023-02-01T02:56:01;15.40;;;2.80;;
3757;SDS011;1894;51.038;13.692;2023-02-01T02:58:52;6.63;;;2.17;;
3757;SDS011;1894;51.038;13.692;2023-02-01T03:01:39;10.50;;;2.17;;
3757;SDS011;1894;51.038;13.692;2023-02-01T03:04:26;6.37;;;1.87;;
3757;SDS011;1894;51.038;13.692;2023-02-01T03:06:53;10.47;;;2.27;;
3757;SDS011;1894;51.038;13.692;2023-02-01T03:12:03;10.67;;;2.20;;
3757;SDS011;1894;51.038;13.692;2023-02-01T03:14:56;5.67;;;1.90;;
3757;SDS011;1894;51.038;13.692;2023-02-01T03:17:31;4.80;;;1.77;;
3757;SDS011;1894;51.038;13.692;2023-02-01T03:20:02;9.43;;;1.70;;
3757;SDS011;1894;51.038;13.692;2023-02-01T03:22:32;5.80;;;2.00;;
3757;SDS011;1894;51.038;13.692;2023-02-01T03:25:04;9.50;;;2.10;;
3757;SDS011;1894;51.038;13.692;2023-02-01T03:27:49;7.40;;;1.50;;
3757;SDS011;1894;51.038;13.692;2023-02-01T03:30:26;5.43;;;2.40;;
3757;SDS011;1894;51.038;13.692;2023-02-01T03:32:58;9.33;;;2.03;;
3757;SDS011;1894;51.038;13.692;2023-02-01T03:38:22;8.83;;;2.40;;
3757;SDS011;1894;51.038;13.692;2023-02-01T03:46:46;11.83;;;1.83;;
3757;SDS011;1894;51.038;13.692;2023-02-01T03:49:30;7.70;;;2.50;;
3757;SDS011;1894;51.038;13.692;2023-02-01T03:52:08;11.43;;;1.77;;
3757;SDS011;1894;51.038;13.692;2023-02-01T03:55:14;4.40;;;1.70;;
3757;SDS011;1894;51.038;13.692;2023-02-01T03:57:45;4.47;;;1.80;;
3757;SDS011;1894;51.038;13.692;2023-02-01T04:00:21;7.80;;;1.87;;
3757;SDS011;1894;51.038;13.692;2023-02-01T04:02:52;7.90;;;1.80;;
3757;SDS011;1894;51.038;13.692;2023-02-01T04:05:20;9.50;;;1.67;;
3757;SDS011;1894;51.038;13.692;2023-02-01T04:07:56;10.57;;;1.87;;
3757;SDS011;1894;51.038;13.692;2023-02-01T04:10:24;9.67;;;2.10;;
3757;SDS011;1894;51.038;13.692;2023-02-01T04:12:52;8.43;;;1.97;;
3757;SDS011;1894;51.038;13.692;2023-02-01T04:15:19;8.93;;;1.70;;
3757;SDS011;1894;51.038;13.692;2023-02-01T04:17:46;12.07;;;1.80;;
3757;SDS011;1894;51.038;13.692;2023-02-01T04:20:13;14.30;;;3.37;;
3757;SDS011;1894;51.038;13.692;2023-02-01T04:22:40;6.47;;;2.10;;
3757;SDS011;1894;51.038;13.692;2023-02-01T04:25:09;8.70;;;2.00;;
3757;SDS011;1894;51.038;13.692;2023-02-01T04:27:36;5.13;;;1.30;;
3757;SDS011;1894;51.038;13.692;2023-02-01T04:30:04;12.07;;;1.87;;
3757;SDS011;1894;51.038;13.692;2023-02-01T04:32:36;11.97;;;2.77;;
3757;SDS011;1894;51.038;13.692;2023-02-01T04:35:04;11.10;;;1.93;;
3757;SDS011;1894;51.038;13.692;2023-02-01T04:37:33;9.57;;;2.03;;
3757;SDS011;1894;51.038;13.692;2023-02-01T04:40:01;10.13;;;1.50;;
3757;SDS011;1894;51.038;13.692;2023-02-01T04:42:30;6.97;;;1.83;;
3757;SDS011;1894;51.038;13.692;2023-02-01T04:44:57;6.40;;;2.10;;
3757;SDS011;1894;51.038;13.692;2023-02-01T04:47:24;14.53;;;1.83;;
3757;SDS011;1894;51.038;13.692;2023-02-01T04:49:51;7.83;;;2.10;;
3757;SDS011;1894;51.038;13.692;2023-02-01T04:52:18;17.30;;;3.60;;
3757;SDS011;1894;51.038;13.692;2023-02-01T04:54:45;15.20;;;2.43;;
3757;SDS011;1894;51.038;13.692;2023-02-01T04:57:12;6.30;;;2.07;;
3757;SDS011;1894;51.038;13.692;2023-02-01T04:59:41;7.57;;;1.80;;
3757;SDS011;1894;51.038;13.692;2023-02-01T05:02:08;7.53;;;1.67;;
3757;SDS011;1894;51.038;13.692;2023-02-01T05:04:35;14.67;;;3.00;;
3757;SDS011;1894;51.038;13.692;2023-02-01T05:07:02;10.80;;;2.50;;
3757;SDS011;1894;51.038;13.692;2023-02-01T05:09:30;11.00;;;1.97;;
3757;SDS011;1894;51.038;13.692;2023-02-01T05:11:57;8.30;;;1.73;;
3757;SDS011;1894;51.038;13.692;2023-02-01T05:14:42;11.93;;;2.70;;
3757;SDS011;1894;51.038;13.692;2023-02-01T05:17:09;10.40;;;1.77;;
3757;SDS011;1894;51.038;13.692;2023-02-01T05:19:36;9.40;;;2.17;;
3757;SDS011;1894;51.038;13.692;2023-02-01T05:22:03;9.30;;;1.40;;
3757;SDS011;1894;51.038;13.692;2023-02-01T05:24:31;10.70;;;2.27;;
3757;SDS011;1894;51.038;13.692;2023-02-01T05:26:58;6.60;;;1.60;;
3757;SDS011;1894;51.038;13.692;2023-02-01T05:29:25;10.03;;;2.07;;
3757;SDS011;1894;51.038;13.692;2023-02-01T05:31:53;7.33;;;1.83;;
3757;SDS011;1894;51.038;13.692;2023-02-01T05:34:20;10.03;;;2.17;;
3757;SDS011;1894;51.038;13.692;2023-02-01T05:36:47;13.97;;;2.20;;
3757;SDS011;1894;51.038;13.692;2023-02-01T05:39:14;9.83;;;1.80;;
3757;SDS011;1894;51.038;13.692;2023-02-01T05:41:41;14.87;;;2.13;;
3757;SDS011;1894;51.038;13.692;2023-02-01T05:44:09;6.10;;;2.23;;
3757;SDS011;1894;51.038;13.692;2023-02-01T05:46:37;9.70;;;2.37;;
3757;SDS011;1894;51.038;13.692;2023-02-01T05:49:05;6.63;;;1.93;;
3757;SDS011;1894;51.038;13.692;2023-02-01T05:51:32;11.47;;;1.73;;
3757;SDS011;1894;51.038;13.692;2023-02-01T05:54:00;16.43;;;2.97;;
3757;SDS011;1894;51.038;13.692;2023-02-01T05:56:27;14.13;;;2.53;;
3757;SDS011;1894;51.038;13.692;2023-02-01T05:58:54;8.87;;;2.03;;
3757;SDS011;1894;51.038;13.692;2023-02-01T06:01:21;8.70;;;3.00;;
3757;SDS011;1894;51.038;13.692;2023-02-01T06:03:49;3.60;;;1.80;;
3757;SDS011;1894;51.038;13.692;2023-02-01T06:06:16;8.60;;;2.50;;
3757;SDS011;1894;51.038;13.692;2023-02-01T06:08:45;6.60;;;2.40;;
3757;SDS011;1894;51.038;13.692;2023-02-01T06:11:13;11.03;;;3.10;;
3757;SDS011;1894;51.038;13.692;2023-02-01T06:13:56;6.60;;;2.00;;
3757;SDS011;1894;51.038;13.692;2023-02-01T06:16:24;9.33;;;2.20;;
3757;SDS011;1894;51.038;13.692;2023-02-01T06:18:51;17.80;;;3.50;;
3757;SDS011;1894;51.038;13.692;2023-02-01T06:21:18;11.80;;;2.47;;
3757;SDS011;1894;51.038;13.692;2023-02-01T06:23:51;10.33;;;2.40;;
3757;SDS011;1894;51.038;13.692;2023-02-01T06:26:19;14.17;;;2.10;;
3757;SDS011;1894;51.038;13.692;2023-02-01T06:28:47;12.53;;;2.47;;
3757;SDS011;1894;51.038;13.692;2023-02-01T06:31:14;16.80;;;2.77;;
3757;SDS011;1894;51.038;13.692;2023-02-01T06:33:41;5.37;;;2.07;;
3757;SDS011;1894;51.038;13.692;2023-02-01T06:36:09;9.70;;;3.10;;
3757;SDS011;1894;51.038;13.692;2023-02-01T06:38:42;13.33;;;2.57;;
3757;SDS011;1894;51.038;13.692;2023-02-01T06:41:09;7.70;;;2.00;;
3757;SDS011;1894;51.038;13.692;2023-02-01T06:43:37;11.77;;;2.03;;
3757;SDS011;1894;51.038;13.692;2023-02-01T06:46:05;6.30;;;2.33;;
3757;SDS011;1894;51.038;13.692;2023-02-01T06:48:35;7.20;;;2.33;;
3757;SDS011;1894;51.038;13.692;2023-02-01T06:51:02;8.37;;;3.00;;
3757;SDS011;1894;51.038;13.692;2023-02-01T06:53:29;8.50;;;1.80;;
3757;SDS011;1894;51.038;13.692;2023-02-01T06:55:58;9.43;;;2.13;;
3757;SDS011;1894;51.038;13.692;2023-02-01T06:58:31;8.57;;;1.90;;
3757;SDS011;1894;51.038;13.692;2023-02-01T07:01:06;10.93;;;2.30;;
3757;SDS011;1894;51.038;13.692;2023-02-01T07:03:35;6.43;;;1.83;;
3757;SDS011;1894;51.038;13.692;2023-02-01T07:06:03;8.33;;;2.60;;
3757;SDS011;1894;51.038;13.692;2023-02-01T07:08:32;7.03;;;2.00;;
3757;SDS011;1894;51.038;13.692;2023-02-01T07:11:06;10.93;;;2.30;;
3757;SDS011;1894;51.038;13.692;2023-02-01T07:13:36;7.70;;;2.30;;
3757;SDS011;1894;51.038;13.692;2023-02-01T07:16:05;17.43;;;3.13;;
3757;SDS011;1894;51.038;13.692;2023-02-01T07:18:39;10.93;;;2.83;;
3757;SDS011;1894;51.038;13.692;2023-02-01T07:21:06;11.23;;;2.93;;
3757;SDS011;1894;51.038;13.692;2023-02-01T07:23:34;16.70;;;2.77;;
3757;SDS011;1894;51.038;13.692;2023-02-01T07:26:02;5.80;;;2.20;;
3757;SDS011;1894;51.038;13.692;2023-02-01T07:28:33;18.20;;;2.80;;
3757;SDS011;1894;51.038;13.692;2023-02-01T07:31:02;8.53;;;3.47;;
3757;SDS011;1894;51.038;13.692;2023-02-01T07:33:35;14.30;;;2.83;;
3757;SDS011;1894;51.038;13.692;2023-02-01T07:36:03;5.70;;;2.63;;
3757;SDS011;1894;51.038;13.692;2023-02-01T07:38:32;8.77;;;2.70;;
3757;SDS011;1894;51.038;13.692;2023-02-01T07:41:00;9.00;;;2.77;;
3757;SDS011;1894;51.038;13.692;2023-02-01T07:43:31;6.90;;;2.20;;
3757;SDS011;1894;51.038;13.692;2023-02-01T07:46:02;7.53;;;2.83;;
3757;SDS011;1894;51.038;13.692;2023-02-01T07:48:31;9.03;;;2.10;;
3757;SDS011;1894;51.038;13.692;2023-02-01T07:51:04;9.20;;;2.30;;
3757;SDS011;1894;51.038;13.692;2023-02-01T07:53:35;8.87;;;2.27;;
3757;SDS011;1894;51.038;13.692;2023-02-01T07:56:03;9.50;;;2.57;;
3757;SDS011;1894;51.038;13.692;2023-02-01T07:58:37;11.43;;;2.30;;
3757;SDS011;1894;51.038;13.692;2023-02-01T08:01:04;13.80;;;2.93;;
3757;SDS011;1894;51.038;13.692;2023-02-01T08:03:49;8.40;;;2.47;;
3757;SDS011;1894;51.038;13.692;2023-02-01T08:06:18;11.07;;;2.67;;
3757;SDS011;1894;51.038;13.692;2023-02-01T08:08:46;14.30;;;2.80;;
3757;SDS011;1894;51.038;13.692;2023-02-01T08:11:18;11.70;;;2.97;;
3757;SDS011;1894;51.038;13.692;2023-02-01T08:13:48;6.60;;;2.23;;
3757;SDS011;1894;51.038;13.692;2023-02-01T08:16:16;10.90;;;3.07;;
3757;SDS011;1894;51.038;13.692;2023-02-01T08:18:45;4.83;;;2.13;;
3757;SDS011;1894;51.038;13.692;2023-02-01T08:21:14;8.53;;;2.50;;
3757;SDS011;1894;51.038;13.692;2023-02-01T08:23:48;8.37;;;2.50;;
3757;SDS011;1894;51.038;13.692;2023-02-01T08:26:18;12.80;;;3.03;;
3757;SDS011;1894;51.038;13.692;2023-02-01T08:28:55;7.40;;;2.73;;
3757;SDS011;1894;51.038;13.692;2023-02-01T08:31:26;8.30;;;2.70;;
3757;SDS011;1894;51.038;13.692;2023-02-01T08:33:56;12.93;;;2.93;;
3757;SDS011;1894;51.038;13.692;2023-02-01T08:36:26;12.27;;;2.40;;
3757;SDS011;1894;51.038;13.692;2023-02-01T08:38:56;8.23;;;2.70;;
3757;SDS011;1894;51.038;13.692;2023-02-01T08:41:25;14.03;;;2.57;;
3757;SDS011;1894;51.038;13.692;2023-02-01T08:43:55;7.90;;;2.50;;
3757;SDS011;1894;51.038;13.692;2023-02-01T08:46:24;16.30;;;4.30;;
3757;SDS011;1894;51.038;13.692;2023-02-01T08:48:52;7.83;;;2.60;;
3757;SDS011;1894;51.038;13.692;2023-02-01T08:51:20;8.87;;;2.53;;
3757;SDS011;1894;51.038;13.692;2023-02-01T08:53:49;7.47;;;2.60;;
3757;SDS011;1894;51.038;13.692;2023-02-01T08:56:18;7.73;;;2.07;;
3757;SDS011;1894;51.038;13.692;2023-02-01T08:58:46;7.53;;;2.50;;
3757;SDS011;1894;51.038;13.692;2023-02-01T09:01:14;6.40;;;2.17;;
3757;SDS011;1894;51.038;13.692;2023-02-01T09:03:43;5.50;;;2.03;;
3757;SDS011;1894;51.038;13.692;2023-02-01T09:06:11;7.73;;;2.57;;
3757;SDS011;1894;51.038;13.692;2023-02-01T09:08:40;10.07;;;2.10;;
3757;SDS011;1894;51.038;13.692;2023-02-01T09:11:13;10.00;;;2.03;;
3757;SDS011;1894;51.038;13.692;2023-02-01T09:13:43;10.70;;;3.30;;
3757;SDS011;1894;51.038;13.692;2023-02-01T09:16:10;11.87;;;2.67;;
3757;SDS011;1894;51.038;13.692;2023-02-01T09:18:38;8.90;;;2.47;;
3757;SDS011;1894;51.038;13.692;2023-02-01T09:21:26;12.50;;;2.70;;
3757;SDS011;1894;51.038;13.692;2023-02-01T09:23:53;13.63;;;3.70;;
3757;SDS011;1894;51.038;13.692;2023-02-01T09:26:20;7.07;;;2.00;;
3757;SDS011;1894;51.038;13.692;2023-02-01T09:28:57;13.97;;;2.57;;
3757;SDS011;1894;51.038;13.692;2023-02-01T09:31:25;8.33;;;2.30;;
3757;SDS011;1894;51.038;13.692;2023-02-01T09:33:52;9.00;;;2.93;;
3757;SDS011;1894;51.038;13.692;2023-02-01T09:36:19;10.80;;;3.13;;
3757;SDS011;1894;51.038;13.692;2023-02-01T09:38:46;14.53;;;3.30;;
3757;SDS011;1894;51.038;13.692;2023-02-01T09:44:42;6.47;;;2.20;;
3757;SDS011;1894;51.038;13.692;2023-02-01T09:47:34;13.20;;;2.83;;
3757;SDS011;1894;51.038;13.692;2023-02-01T09:50:19;8.47;;;3.40;;
3757;SDS011;1894;51.038;13.692;2023-02-01T09:55:40;11.87;;;2.70;;
3757;SDS011;1894;51.038;13.692;2023-02-01T10:00:59;9.10;;;2.90;;
3757;SDS011;1894;51.038;13.692;2023-02-01T10:03:29;15.83;;;3.27;;
3757;SDS011;1894;51.038;13.692;2023-02-01T10:15:15;14.57;;;4.20;;
3757;SDS011;1894;51.038;13.692;2023-02-01T10:27:01;10.03;;;2.50;;
3757;SDS011;1894;51.038;13.692;2023-02-01T10:29:39;11.03;;;2.47;;
3757;SDS011;1894;51.038;13.692;2023-02-01T10:32:16;11.27;;;3.47;;
3757;SDS011;1894;51.038;13.692;2023-02-01T10:34:50;13.67;;;3.20;;
3757;SDS011;1894;51.038;13.692;2023-02-01T10:39:54;8.93;;;4.27;;
3757;SDS011;1894;51.038;13.692;2023-02-01T10:42:25;8.00;;;2.80;;
3757;SDS011;1894;51.038;13.692;2023-02-01T10:44:55;12.07;;;3.20;;
3757;SDS011;1894;51.038;13.692;2023-02-01T10:47:25;12.03;;;3.50;;
3757;SDS011;1894;51.038;13.692;2023-02-01T10:50:04;9.97;;;3.10;;
3757;SDS011;1894;51.038;13.692;2023-02-01T10:52:50;8.07;;;2.97;;
3757;SDS011;1894;51.038;13.692;2023-02-01T10:55:40;15.83;;;2.90;;
3757;SDS011;1894;51.038;13.692;2023-02-01T10:58:35;4.60;;;2.77;;
3757;SDS011;1894;51.038;13.692;2023-02-01T11:01:21;7.20;;;2.80;;
3757;SDS011;1894;51.038;13.692;2023-02-01T11:03:57;10.77;;;3.30;;
3757;SDS011;1894;51.038;13.692;2023-02-01T11:14:15;12.27;;;2.20;;
3757;SDS011;1894;51.038;13.692;2023-02-01T11:16:55;8.83;;;2.93;;
3757;SDS011;1894;51.038;13.692;2023-02-01T11:19:26;9.70;;;2.17;;
3757;SDS011;1894;51.038;13.692;2023-02-01T11:21:55;15.67;;;3.07;;
3757;SDS011;1894;51.038;13.692;2023-02-01T11:24:29;13.10;;;3.60;;
3757;SDS011;1894;51.038;13.692;2023-02-01T11:27:02;10.47;;;3.17;;
3757;SDS011;1894;51.038;13.692;2023-02-01T11:29:35;6.67;;;3.03;;
3757;SDS011;1894;51.038;13.692;2023-02-01T11:32:08;8.63;;;2.50;;
3757;SDS011;1894;51.038;13.692;2023-02-01T11:34:46;4.40;;;1.70;;
3757;SDS011;1894;51.038;13.692;2023-02-01T11:37:25;8.80;;;2.90;;
3757;SDS011;1894;51.038;13.692;2023-02-01T11:39:58;12.10;;;2.77;;
3757;SDS011;1894;51.038;13.692;2023-02-01T11:42:30;6.87;;;2.17;;
3757;SDS011;1894;51.038;13.692;2023-02-01T11:47:57;10.33;;;2.00;;
3757;SDS011;1894;51.038;13.692;2023-02-01T11:53:18;10.00;;;1.90;;
3757;SDS011;1894;51.038;13.692;2023-02-01T11:59:17;9.27;;;2.80;;
3757;SDS011;1894;51.038;13.692;2023-02-01T12:01:45;5.80;;;2.10;;
3757;SDS011;1894;51.038;13.692;2023-02-01T12:10:20;8.63;;;2.67;;
3757;SDS011;1894;51.038;13.692;2023-02-01T12:13:30;10.43;;;1.80;;
3757;SDS011;1894;51.038;13.692;2023-02-01T12:22:19;6.90;;;1.97;;
3757;SDS011;1894;51.038;13.692;2023-02-01T12:31:15;4.43;;;1.43;;
3757;SDS011;1894;51.038;13.692;2023-02-01T12:34:49;10.30;;;2.10;;
3757;SDS011;1894;51.038;13.692;2023-02-01T12:43:19;5.53;;;1.63;;
3757;SDS011;1894;51.038;13.692;2023-02-01T12:48:58;5.30;;;2.50;;
3757;SDS011;1894;51.038;13.692;2023-02-01T12:51:40;8.67;;;2.77;;
3757;SDS011;1894;51.038;13.692;2023-02-01T12:56:54;10.40;;;1.80;;
3757;SDS011;1894;51.038;13.692;2023-02-01T13:02:43;7.50;;;2.50;;
3757;SDS011;1894;51.038;13.692;2023-02-01T13:05:24;6.27;;;2.33;;
3757;SDS011;1894;51.038;13.692;2023-02-01T13:08:12;6.70;;;2.10;;
3757;SDS011;1894;51.038;13.692;2023-02-01T13:17:04;11.10;;;2.90;;
3757;SDS011;1894;51.038;13.692;2023-02-01T13:19:49;6.83;;;2.03;;
3757;SDS011;1894;51.038;13.692;2023-02-01T13:22:30;2.80;;;1.87;;
3757;SDS011;1894;51.038;13.692;2023-02-01T13:25:03;8.40;;;2.00;;
3757;SDS011;1894;51.038;13.692;2023-02-01T13:27:40;6.67;;;1.63;;
3757;SDS011;1894;51.038;13.692;2023-02-01T13:30:11;9.03;;;2.03;;
3757;SDS011;1894;51.038;13.692;2023-02-01T13:33:03;6.20;;;2.87;;
3757;SDS011;1894;51.038;13.692;2023-02-01T13:42:26;9.43;;;3.20;;
3757;SDS011;1894;51.038;13.692;2023-02-01T13:44:58;8.40;;;1.93;;
3757;SDS011;1894;51.038;13.692;2023-02-01T13:47:40;5.17;;;1.77;;
3757;SDS011;1894;51.038;13.692;2023-02-01T13:55:34;9.20;;;2.60;;
3757;SDS011;1894;51.038;13.692;2023-02-01T14:00:41;2.03;;;1.17;;
3757;SDS011;1894;51.038;13.692;2023-02-01T14:06:14;12.67;;;1.67;;
3757;SDS011;1894;51.038;13.692;2023-02-01T14:09:16;6.90;;;1.93;;
3757;SDS011;1894;51.038;13.692;2023-02-01T14:16:42;5.40;;;2.10;;
3757;SDS011;1894;51.038;13.692;2023-02-01T14:19:31;7.60;;;1.60;;
3757;SDS011;1894;51.038;13.692;2023-02-01T14:22:01;15.20;;;3.07;;
3757;SDS011;1894;51.038;13.692;2023-02-01T14:24:51;6.80;;;2.10;;
3757;SDS011;1894;51.038;13.692;2023-02-01T14:27:27;5.67;;;1.17;;
3757;SDS011;1894;51.038;13.692;2023-02-01T14:29:57;9.47;;;1.30;;
3757;SDS011;1894;51.038;13.692;2023-02-01T14:32:34;5.03;;;2.63;;
3757;SDS011;1894;51.038;13.692;2023-02-01T14:35:21;8.93;;;1.87;;
3757;SDS011;1894;51.038;13.692;2023-02-01T14:37:53;3.37;;;1.30;;
3757;SDS011;1894;51.038;13.692;2023-02-01T14:40:27;4.97;;;1.60;;
3757;SDS011;1894;51.038;13.692;2023-02-01T14:42:55;4.90;;;1.60;;
3757;SDS011;1894;51.038;13.692;2023-02-01T14:59:06;8.03;;;1.77;;
3757;SDS011;1894;51.038;13.692;2023-02-01T15:01:45;4.70;;;2.10;;
3757;SDS011;1894;51.038;13.692;2023-02-01T15:04:18;12.43;;;3.23;;
3757;SDS011;1894;51.038;13.692;2023-02-01T15:06:52;9.27;;;2.60;;
3757;SDS011;1894;51.038;13.692;2023-02-01T15:17:19;7.60;;;3.00;;
3757;SDS011;1894;51.038;13.692;2023-02-01T15:20:01;4.00;;;2.00;;
3757;SDS011;1894;51.038;13.692;2023-02-01T15:22:34;4.57;;;1.80;;
3757;SDS011;1894;51.038;13.692;2023-02-01T15:25:02;5.50;;;2.00;;
3757;SDS011;1894;51.038;13.692;2023-02-01T15:27:30;6.57;;;2.00;;
3757;SDS011;1894;51.038;13.692;2023-02-01T15:30:12;9.40;;;2.20;;
3757;SDS011;1894;51.038;13.692;2023-02-01T15:32:49;7.33;;;2.63;;
3757;SDS011;1894;51.038;13.692;2023-02-01T15:46:44;8.87;;;2.00;;
3757;SDS011;1894;51.038;13.692;2023-02-01T15:51:59;5.07;;;1.30;;
3757;SDS011;1894;51.038;13.692;2023-02-01T15:54:28;3.27;;;1.50;;
3757;SDS011;1894;51.038;13.692;2023-02-01T15:57:19;9.77;;;1.60;;
3757;SDS011;1894;51.038;13.692;2023-02-01T16:00:00;5.47;;;2.63;;
3757;SDS011;1894;51.038;13.692;2023-02-01T16:02:57;5.67;;;1.77;;
3757;SDS011;1894;51.038;13.692;2023-02-01T16:05:40;12.20;;;2.63;;
3757;SDS011;1894;51.038;13.692;2023-02-01T16:10:42;6.93;;;2.13;;
3757;SDS011;1894;51.038;13.692;2023-02-01T16:13:13;7.20;;;2.20;;
3757;SDS011;1894;51.038;13.692;2023-02-01T16:15:42;9.93;;;3.00;;
3757;SDS011;1894;51.038;13.692;2023-02-01T16:18:10;5.03;;;2.00;;
3757;SDS011;1894;51.038;13.692;2023-02-01T16:20:41;6.23;;;2.80;;
3757;SDS011;1894;51.038;13.692;2023-02-01T16:23:09;9.40;;;2.87;;
3757;SDS011;1894;51.038;13.692;2023-02-01T16:25:37;5.33;;;3.00;;
3757;SDS011;1894;51.038;13.692;2023-02-01T16:28:06;7.20;;;2.07;;
3757;SDS011;1894;51.038;13.692;2023-02-01T16:30:34;9.27;;;3.70;;
3757;SDS011;1894;51.038;13.692;2023-02-01T16:33:02;12.37;;;2.33;;
3757;SDS011;1894;51.038;13.692;2023-02-01T16:35:35;9.60;;;2.77;;
3757;SDS011;1894;51.038;13.692;2023-02-01T16:38:14;6.33;;;2.60;;
3757;SDS011;1894;51.038;13.692;2023-02-01T16:40:45;7.40;;;2.23;;
3757;SDS011;1894;51.038;13.692;2023-02-01T16:43:20;7.63;;;3.00;;
3757;SDS011;1894;51.038;13.692;2023-02-01T16:45:50;12.17;;;3.70;;
3757;SDS011;1894;51.038;13.692;2023-02-01T16:48:21;13.63;;;3.63;;
3757;SDS011;1894;51.038;13.692;2023-02-01T16:50:53;8.07;;;3.60;;
3757;SDS011;1894;51.038;13.692;2023-02-01T16:53:24;6.70;;;3.70;;
3757;SDS011;1894;51.038;13.692;2023-02-01T16:55:54;16.33;;;4.73;;
3757;SDS011;1894;51.038;13.692;2023-02-01T16:58:24;11.30;;;4.30;;
3757;SDS011;1894;51.038;13.692;2023-02-01T17:00:53;7.80;;;4.30;;
3757;SDS011;1894;51.038;13.692;2023-02-01T17:03:21;18.63;;;3.80;;
3757;SDS011;1894;51.038;13.692;2023-02-01T17:05:49;12.03;;;4.90;;
3757;SDS011;1894;51.038;13.692;2023-02-01T17:08:25;9.70;;;4.47;;
3757;SDS011;1894;51.038;13.692;2023-02-01T17:11:06;3.50;;;2.10;;
3757;SDS011;1894;51.038;13.692;2023-02-01T17:13:34;5.07;;;2.37;;
3757;SDS011;1894;51.038;13.692;2023-02-01T17:16:03;1.90;;;1.27;;
3757;SDS011;1894;51.038;13.692;2023-02-01T17:18:39;2.80;;;1.00;;
3757;SDS011;1894;51.038;13.692;2023-02-01T17:21:06;1.20;;;0.90;;
3757;SDS011;1894;51.038;13.692;2023-02-01T17:23:36;1.27;;;0.73;;
3757;SDS011;1894;51.038;13.692;2023-02-01T17:26:03;1.10;;;0.70;;
3757;SDS011;1894;51.038;13.692;2023-02-01T17:28:30;0.63;;;0.63;;
3757;SDS011;1894;51.038;13.692;2023-02-01T17:30:58;1.33;;;0.80;;
3757;SDS011;1894;51.038;13.692;2023-02-01T17:33:29;2.40;;;1.33;;
3757;SDS011;1894;51.038;13.692;2023-02-01T17:36:03;3.77;;;1.70;;
3757;SDS011;1894;51.038;13.692;2023-02-01T17:38:32;3.23;;;2.00;;
3757;SDS011;1894;51.038;13.692;2023-02-01T17:41:00;2.90;;;1.10;;
3757;SDS011;1894;51.038;13.692;2023-02-01T17:43:27;1.27;;;1.00;;
3757;SDS011;1894;51.038;13.692;2023-02-01T17:46:14;1.70;;;1.57;;
3757;SDS011;1894;51.038;13.692;2023-02-01T17:48:46;1.67;;;1.30;;
3757;SDS011;1894;51.038;13.692;2023-02-01T17:51:15;1.90;;;1.50;;
3757;SDS011;1894;51.038;13.692;2023-02-01T17:53:51;2.70;;;1.37;;
3757;SDS011;1894;51.038;13.692;2023-02-01T17:56:19;1.63;;;0.90;;
3757;SDS011;1894;51.038;13.692;2023-02-01T17:58:48;5.17;;;1.00;;
3757;SDS011;1894;51.038;13.692;2023-02-01T18:01:20;2.17;;;0.80;;
3757;SDS011;1894;51.038;13.692;2023-02-01T18:03:50;2.50;;;0.70;;
3757;SDS011;1894;51.038;13.692;2023-02-01T18:06:21;4.30;;;1.00;;
3757;SDS011;1894;51.038;13.692;2023-02-01T18:08:52;2.40;;;1.00;;
3757;SDS011;1894;51.038;13.692;2023-02-01T18:11:20;2.27;;;1.57;;
3757;SDS011;1894;51.038;13.692;2023-02-01T18:13:50;1.87;;;0.90;;
3757;SDS011;1894;51.038;13.692;2023-02-01T18:16:21;1.00;;;0.80;;
3757;SDS011;1894;51.038;13.692;2023-02-01T18:18:49;3.20;;;0.80;;
3757;SDS011;1894;51.038;13.692;2023-02-01T18:21:19;2.83;;;0.80;;
3757;SDS011;1894;51.038;13.692;2023-02-01T18:23:48;3.57;;;0.90;;
3757;SDS011;1894;51.038;13.692;2023-02-01T18:26:16;7.63;;;0.90;;
3757;SDS011;1894;51.038;13.692;2023-02-01T18:28:44;5.17;;;1.37;;
3757;SDS011;1894;51.038;13.692;2023-02-01T18:31:25;8.07;;;1.00;;
3757;SDS011;1894;51.038;13.692;2023-02-01T18:33:56;7.40;;;0.90;;
3757;SDS011;1894;51.038;13.692;2023-02-01T18:36:25;6.37;;;0.90;;
3757;SDS011;1894;51.038;13.692;2023-02-01T18:38:53;2.77;;;1.13;;
3757;SDS011;1894;51.038;13.692;2023-02-01T18:41:23;1.83;;;1.00;;